Time;durP1;ratioP1;P1;durP2;ratioP2;P2;SDS_P1;SDS_P2;PMS_P1;PMS_P2;Temp;Humidity;BMP_temperature;BMP_pressure;BME280_temperature;BME280_humidity;BME280_pressure;Samples;Min_cycle;Max_cycle;Signal;HPM_P1;HPM_P2
2024/04/10 00:01:04;;;;;;;;;;;;;;;17.70;44.93;101683.88;5024824;28;20019;-90
2024/04/10 00:03:40;;;;;;;;;;;;;;;17.61;45.44;101680.88;5024312;28;19929;-90
2024/04/10 00:06:09;;;;;;;;;;;;;;;17.61;45.19;101680.88;5026013;28;20034;-90
2024/04/10 00:08:39;;;;;;;;;;;;;;;17.56;45.52;101678.16;5027528;28;19970;-90
2024/04/10 00:11:25;;;;;;;;;;;;;;;17.55;45.72;101687.38;5030511;28;19917;-90
2024/04/10 00:13:52;;;;;;;;;;;;;;;17.56;45.45;101686.28;5026762;28;20589;-89
2024/04/10 00:16:18;;;;;;;;;;;;;;;17.55;45.62;101690.06;5026852;28;19925;-89
2024/04/10 00:18:45;;;;;;;;;;;;;;;17.49;45.76;101691.97;5024608;28;20373;-90
2024/04/10 00:21:11;;;;;;;;;;;;;;;17.48;45.69;101700.38;5025140;28;19929;-90
2024/04/10 00:23:37;;;;;;;;;;;;;;;17.41;45.74;101718.78;5032595;28;20412;-91
2024/04/10 00:26:04;;;;;;;;;;;;;;;17.33;45.98;101728.28;5028437;28;19917;-91
2024/04/10 00:28:31;;;;;;;;;;;;;;;17.30;46.32;101731.53;5025699;28;19994;-90
2024/04/10 00:30:57;;;;;;;;;;;;;;;17.26;46.38;101740.47;5032054;28;19936;-91
2024/04/10 00:33:23;;;;;;;;;;;;;;;17.21;46.39;101752.06;5047045;28;19988;-91
2024/04/10 00:35:58;;;;;;;;;;;;;;;17.16;47.18;101752.06;5031176;28;19964;-91
2024/04/10 00:38:29;;;;;;;;;;;;;;;17.13;47.26;101755.31;5025632;28;19917;-90
2024/04/10 00:40:59;;;;;;;;;;;;;;;17.11;47.38;101755.59;5031332;28;19924;-91
2024/04/10 00:43:26;;;;;;;;;;;;;;;17.06;47.66;101749.34;5024317;28;19921;-90
2024/04/10 00:45:56;;;;;;;;;;;;;;;17.03;47.96;101750.69;5022865;28;20012;-92
2024/04/10 00:48:21;;;;;;;;;;;;;;;16.98;48.16;101747.97;5028363;28;20012;-91
2024/04/10 00:50:47;;;;;;;;;;;;;;;16.95;48.30;101753.91;5026343;28;20012;-92
2024/04/10 00:53:13;;;;;;;;;;;;;;;16.91;48.43;101755.53;5026782;28;19917;-91
2024/04/10 00:55:39;;;;;;;;;;;;;;;16.85;48.20;101762.00;5025149;28;19960;-91
2024/04/10 00:58:04;;;;;;;;;;;;;;;16.72;49.33;101752.50;5030157;28;20368;-92
2024/04/10 01:00:31;;;;;;;;;;;;;;;16.67;49.39;101759.75;5026369;28;20417;-90
2024/04/10 01:02:57;;;;;;;;;;;;;;;16.63;49.17;101751.31;5024580;28;19921;-91
2024/04/10 01:05:23;;;;;;;;;;;;;;;16.58;49.48;101760.25;5026591;28;20040;-91
2024/04/10 01:07:50;;;;;;;;;;;;;;;16.50;49.93;101760.72;5029388;28;19925;-92
2024/04/10 01:10:20;;;;;;;;;;;;;;;16.46;50.44;101762.34;5025541;28;19921;-91
2024/04/10 01:12:46;;;;;;;;;;;;;;;16.43;50.47;101756.63;5042626;28;19936;-91
2024/04/10 01:15:13;;;;;;;;;;;;;;;16.38;50.65;101760.13;5027208;28;19917;-92
2024/04/10 01:17:40;;;;;;;;;;;;;;;16.35;50.79;101754.44;5029695;28;19917;-91
2024/04/10 01:20:12;;;;;;;;;;;;;;;16.33;51.23;101762.78;5023895;28;19928;-91
2024/04/10 01:22:59;;;;;;;;;;;;;;;16.30;50.85;101757.91;5026363;28;19925;-91
2024/04/10 01:25:27;;;;;;;;;;;;;;;16.24;51.84;101776.00;5028860;28;20377;-91
2024/04/10 01:27:55;;;;;;;;;;;;;;;16.20;51.97;101768.69;5039355;28;19925;-91
2024/04/10 01:30:20;;;;;;;;;;;;;;;16.17;51.73;101780.03;5023451;28;20357;-91
2024/04/10 01:32:46;;;;;;;;;;;;;;;16.11;52.11;101778.34;5028088;28;20018;-91
2024/04/10 01:35:14;;;;;;;;;;;;;;;16.07;52.25;101779.94;5024280;28;19956;-92
2024/04/10 01:37:50;;;;;;;;;;;;;;;16.02;52.37;101780.72;5027198;28;19917;-92
2024/04/10 01:40:25;;;;;;;;;;;;;;;15.94;53.26;101787.41;5024943;28;19996;-91
2024/04/10 01:42:50;;;;;;;;;;;;;;;15.92;52.90;101794.97;5021075;28;20009;-92
2024/04/10 01:45:20;;;;;;;;;;;;;;;15.84;53.46;101791.94;5025705;28;19960;-91
2024/04/10 01:47:46;;;;;;;;;;;;;;;15.74;53.70;101813.44;5030440;28;19921;-92
2024/04/10 01:50:15;;;;;;;;;;;;;;;15.63;54.49;101809.84;5026594;28;20344;-91
2024/04/10 01:52:40;;;;;;;;;;;;;;;15.54;54.65;101819.44;5021323;28;19923;-92
2024/04/10 01:55:06;;;;;;;;;;;;;;;15.45;55.33;101813.69;5021693;28;19917;-92
2024/04/10 01:57:34;;;;;;;;;;;;;;;15.39;56.03;101814.69;5027722;28;19923;-92
2024/04/10 02:00:03;;;;;;;;;;;;;;;15.36;56.27;101813.31;5026670;28;20114;-92
2024/04/10 02:02:31;;;;;;;;;;;;;;;15.35;56.05;101814.41;5024127;28;19921;-94
2024/04/10 02:05:02;;;;;;;;;;;;;;;15.36;56.09;101816.03;5028150;28;20404;-91
2024/04/10 02:07:49;;;;;;;;;;;;;;;15.34;56.82;101818.16;5026499;28;19921;-91
2024/04/10 02:10:16;;;;;;;;;;;;;;;15.34;57.02;101818.16;5028332;28;20026;-90
2024/04/10 02:12:43;;;;;;;;;;;;;;;15.33;58.01;101818.41;5046555;28;19921;-93
2024/04/10 02:15:11;;;;;;;;;;;;;;;15.30;57.27;101830.56;5030800;28;19956;-91
2024/04/10 02:17:37;;;;;;;;;;;;;;;15.27;57.80;101825.66;5027736;28;19948;-91
2024/04/10 02:20:03;;;;;;;;;;;;;;;15.22;58.81;101825.56;5028961;28;19987;-91
2024/04/10 02:22:29;;;;;;;;;;;;;;;15.20;58.17;101830.41;5029886;28;19917;-91
2024/04/10 02:24:56;;;;;;;;;;;;;;;15.16;59.50;101832.00;5024464;28;19928;-91
2024/04/10 02:27:23;;;;;;;;;;;;;;;15.11;59.48;101831.94;5023449;28;20400;-92
2024/04/10 02:29:52;;;;;;;;;;;;;;;15.06;60.18;101834.56;5030872;28;19924;-91
2024/04/10 02:32:18;;;;;;;;;;;;;;;15.04;60.48;101837.50;5030088;28;19925;-91
2024/04/10 02:34:48;;;;;;;;;;;;;;;15.08;59.83;101832.41;5035033;28;19917;-92
2024/04/10 02:38:25;;;;;;;;;;;;;;;15.12;59.81;101828.19;5025075;28;20324;-91
2024/04/10 02:40:59;;;;;;;;;;;;;;;15.13;60.88;101827.09;5029776;28;20016;-91
2024/04/10 02:43:28;;;;;;;;;;;;;;;15.13;60.28;101839.78;5032043;28;20016;-92
2024/04/10 02:45:58;;;;;;;;;;;;;;;15.09;61.31;101843.00;5033552;28;19917;-91
2024/04/10 02:48:24;;;;;;;;;;;;;;;15.11;60.98;101853.53;5028513;28;19925;-91
2024/04/10 02:50:50;;;;;;;;;;;;;;;15.10;61.13;101860.81;5028699;28;19918;-91
2024/04/10 02:53:16;;;;;;;;;;;;;;;15.08;61.35;101862.13;5044744;28;19928;-91
2024/04/10 02:55:44;;;;;;;;;;;;;;;15.06;61.86;101866.94;5029249;28;19924;-91
2024/04/10 02:58:18;;;;;;;;;;;;;;;15.03;62.25;101862.88;5027918;28;19992;-91
2024/04/10 03:00:50;;;;;;;;;;;;;;;15.03;61.76;101860.19;5033196;28;20012;-91
2024/04/10 03:03:18;;;;;;;;;;;;;;;15.05;62.40;101862.63;5022300;28;19953;-92
2024/04/10 03:05:49;;;;;;;;;;;;;;;15.04;63.25;101861.00;5031364;28;19969;-91
2024/04/10 03:08:36;;;;;;;;;;;;;;;15.06;62.25;101861.56;5028626;28;19925;-91
2024/04/10 03:11:16;;;;;;;;;;;;;;;15.03;62.98;101862.88;5028333;28;19952;-92
2024/04/10 03:13:41;;;;;;;;;;;;;;;15.02;62.72;101865.81;5025082;28;19959;-91
2024/04/10 03:16:07;;;;;;;;;;;;;;;14.95;63.67;101874.13;5031184;28;19925;-91
2024/04/10 03:18:33;;;;;;;;;;;;;;;14.90;64.54;101865.13;5029461;28;20646;-92
2024/04/10 03:20:58;;;;;;;;;;;;;;;14.88;64.26;101878.03;5031281;28;19959;-91
2024/04/10 03:23:26;;;;;;;;;;;;;;;14.85;65.24;101881.25;5028516;28;20338;-92
2024/04/10 03:26:06;;;;;;;;;;;;;;;14.81;65.78;101908.72;5020951;28;19928;-92
2024/04/10 03:28:38;;;;;;;;;;;;;;;14.75;65.93;101904.34;5030826;28;19928;-92
2024/04/10 03:31:16;;;;;;;;;;;;;;;14.72;66.36;101904.84;5026688;28;19975;-91
2024/04/10 03:33:47;;;;;;;;;;;;;;;14.70;66.45;101908.81;5020707;28;19957;-92
2024/04/10 03:36:17;;;;;;;;;;;;;;;14.69;66.69;101912.56;5026938;28;19923;-91
2024/04/10 03:38:43;;;;;;;;;;;;;;;14.67;67.97;101931.72;5026182;28;19963;-92
2024/04/10 03:41:10;;;;;;;;;;;;;;;14.64;68.17;101929.50;5026071;28;19921;-92
2024/04/10 03:43:38;;;;;;;;;;;;;;;14.64;68.17;101929.50;5021457;28;19980;-91
2024/04/10 03:46:10;;;;;;;;;;;;;;;14.63;68.59;101938.66;5026962;28;19917;-92
2024/04/10 03:48:39;;;;;;;;;;;;;;;14.60;68.71;101947.25;5032116;28;19921;-92
2024/04/10 03:51:05;;;;;;;;;;;;;;;14.59;68.92;101939.41;5022544;28;19920;-91
2024/04/10 03:53:31;;;;;;;;;;;;;;;14.56;70.38;101954.22;5031559;28;19932;-92
2024/04/10 03:56:00;;;;;;;;;;;;;;;14.57;68.79;101953.16;5024187;28;19913;-92
2024/04/10 03:58:26;;;;;;;;;;;;;;;14.60;68.83;101941.03;5030079;28;19917;-89
2024/04/10 04:00:57;;;;;;;;;;;;;;;14.63;68.65;101938.66;5024676;28;19920;-91
2024/04/10 04:03:26;;;;;;;;;;;;;;;14.65;68.68;101939.22;5025638;28;19986;-91
2024/04/10 04:05:54;;;;;;;;;;;;;;;14.67;69.14;101939.81;5027927;28;19921;-91
2024/04/10 04:08:20;;;;;;;;;;;;;;;14.68;68.92;101949.53;5023856;28;19921;-91
2024/04/10 04:10:47;;;;;;;;;;;;;;;14.68;68.89;101960.31;5029320;28;19952;-91
2024/04/10 04:13:13;;;;;;;;;;;;;;;14.67;69.56;101952.47;5028046;28;19967;-91
2024/04/10 04:15:40;;;;;;;;;;;;;;;14.70;69.36;101951.97;5027109;28;20294;-91
2024/04/10 04:18:09;;;;;;;;;;;;;;;14.69;69.83;101953.84;5030005;28;20125;-92
2024/04/10 04:20:35;;;;;;;;;;;;;;;14.73;68.96;101960.41;5031859;28;20008;-91
2024/04/10 04:23:02;;;;;;;;;;;;;;;14.74;69.29;101977.41;5029191;28;19984;-91
2024/04/10 04:25:30;;;;;;;;;;;;;;;14.74;70.17;101966.63;5043036;28;19920;-92
2024/04/10 04:27:56;;;;;;;;;;;;;;;14.76;69.29;101980.69;5026844;28;20354;-91
2024/04/10 04:30:22;;;;;;;;;;;;;;;14.77;69.44;102004.72;5024520;28;19941;-91
2024/04/10 04:32:50;;;;;;;;;;;;;;;14.79;69.22;102009.88;5025800;28;19973;-92
2024/04/10 04:35:15;;;;;;;;;;;;;;;14.80;68.65;102000.72;5024629;28;19921;-91
2024/04/10 04:37:42;;;;;;;;;;;;;;;14.78;68.91;102000.97;5029292;28;19929;-91
2024/04/10 04:40:10;;;;;;;;;;;;;;;14.82;68.58;102012.88;5029527;28;20007;-91
2024/04/10 04:42:36;;;;;;;;;;;;;;;14.84;68.27;102030.72;5041421;28;19970;-91
2024/04/10 04:45:03;;;;;;;;;;;;;;;14.85;68.23;102021.56;5030448;28;20628;-92
2024/04/10 04:47:31;;;;;;;;;;;;;;;14.87;68.38;102014.03;5020895;28;19922;-91
2024/04/10 04:49:56;;;;;;;;;;;;;;;14.90;68.09;102019.78;5031163;28;19921;-92
2024/04/10 04:52:22;;;;;;;;;;;;;;;14.92;68.15;102027.63;5028242;28;19924;-92
2024/04/10 04:54:49;;;;;;;;;;;;;;;14.91;67.85;102024.09;5028346;28;19963;-92
2024/04/10 04:57:15;;;;;;;;;;;;;;;14.93;67.61;102026.56;5029266;28;19952;-92
2024/04/10 04:59:41;;;;;;;;;;;;;;;14.94;67.77;102031.69;5022660;28;19932;-91
2024/04/10 05:02:08;;;;;;;;;;;;;;;14.95;67.82;102041.44;5028535;28;19924;-91
2024/04/10 05:07:20;;;;;;;;;;;;;;;14.94;67.68;102058.69;5028194;28;19967;-91
2024/04/10 05:09:55;;;;;;;;;;;;;;;14.91;67.86;102069.97;5029949;28;19921;-92
2024/04/10 05:12:21;;;;;;;;;;;;;;;14.92;67.57;102081.59;5031211;28;20019;-92
2024/04/10 05:14:47;;;;;;;;;;;;;;;14.90;67.06;102089.09;5022237;28;20421;-92
2024/04/10 05:17:13;;;;;;;;;;;;;;;14.87;66.33;102092.28;5020626;28;19932;-91
2024/04/10 05:19:38;;;;;;;;;;;;;;;14.87;65.79;102106.59;5026619;28;19967;-92
2024/04/10 05:22:06;;;;;;;;;;;;;;;14.92;65.18;102106.69;5027404;28;19941;-92
2024/04/10 05:24:32;;;;;;;;;;;;;;;14.94;63.94;102122.66;5025093;28;20007;-92
2024/04/10 05:27:00;;;;;;;;;;;;;;;14.92;62.95;102128.28;5028936;28;19976;-92
2024/04/10 05:29:25;;;;;;;;;;;;;;;14.93;62.22;102132.63;5023875;28;19933;-92
2024/04/10 05:31:51;;;;;;;;;;;;;;;14.94;62.00;102141.53;5028070;28;19925;-92
2024/04/10 05:34:16;;;;;;;;;;;;;;;14.94;61.80;102141.53;5037105;28;20325;-92
2024/04/10 05:36:42;;;;;;;;;;;;;;;14.97;61.13;102159.94;5024189;28;19918;-92
2024/04/10 05:39:18;;;;;;;;;;;;;;;14.96;60.47;102151.03;5028809;28;19917;-92
2024/04/10 05:41:45;;;;;;;;;;;;;;;14.97;60.54;102154.53;5026922;28;19926;-92
2024/04/10 05:44:11;;;;;;;;;;;;;;;14.98;59.89;102154.28;5029758;28;19918;-91
2024/04/10 05:46:38;;;;;;;;;;;;;;;14.98;59.94;102161.56;5025185;28;20622;-92
2024/04/10 05:49:05;;;;;;;;;;;;;;;15.01;59.94;102166.47;5026648;28;19925;-92
2024/04/10 05:51:31;;;;;;;;;;;;;;;15.03;59.49;102165.16;5029069;28;19921;-91
2024/04/10 05:53:59;;;;;;;;;;;;;;;15.02;59.45;102163.53;5028422;28;19917;-91
2024/04/10 05:56:26;;;;;;;;;;;;;;;15.07;59.46;102160.09;5028853;28;19916;-92
2024/04/10 05:59:00;;;;;;;;;;;;;;;15.10;59.01;102163.16;5032513;28;19917;-92
2024/04/10 06:01:26;;;;;;;;;;;;;;;15.15;58.88;102164.28;5032816;28;20396;-92
2024/04/10 06:03:52;;;;;;;;;;;;;;;15.18;58.47;102167.31;5033632;28;19921;-93
2024/04/10 06:06:22;;;;;;;;;;;;;;;15.22;58.57;102164.94;5030108;28;19951;-91
2024/04/10 06:08:48;;;;;;;;;;;;;;;15.25;58.33;102167.97;5030307;28;19928;-92
2024/04/10 06:11:15;;;;;;;;;;;;;;;15.31;58.51;102177.81;5032184;28;19917;-92
2024/04/10 06:13:44;;;;;;;;;;;;;;;15.35;58.04;102173.53;5025437;28;20408;-91
2024/04/10 06:16:12;;;;;;;;;;;;;;;15.40;58.08;102186.31;5031817;28;19917;-92
2024/04/10 06:18:38;;;;;;;;;;;;;;;15.43;57.54;102178.53;5032588;28;19943;-92
2024/04/10 06:21:03;;;;;;;;;;;;;;;15.42;57.41;102178.78;5023290;28;19922;-92
2024/04/10 06:23:30;;;;;;;;;;;;;;;15.45;57.49;102174.78;5035432;28;19917;-92
2024/04/10 06:25:57;;;;;;;;;;;;;;;15.47;57.37;102186.16;5041567;28;19929;-92
2024/04/10 06:28:24;;;;;;;;;;;;;;;15.49;57.33;102179.44;5028041;28;19924;-91
2024/04/10 06:31:07;;;;;;;;;;;;;;;15.55;57.29;102188.44;5043129;28;19927;-91
2024/04/10 06:33:42;;;;;;;;;;;;;;;15.62;57.25;102197.25;5027542;28;19921;-92
2024/04/10 06:36:08;;;;;;;;;;;;;;;15.64;57.25;102193.22;5028808;28;19913;-92
2024/04/10 06:38:34;;;;;;;;;;;;;;;15.67;56.58;102195.44;5030011;28;19923;-92
2024/04/10 06:41:01;;;;;;;;;;;;;;;15.68;56.29;102196.25;5046880;28;19917;-91
2024/04/10 06:43:27;;;;;;;;;;;;;;;15.71;56.30;102188.47;5022428;28;19917;-92
2024/04/10 06:45:55;;;;;;;;;;;;;;;15.76;56.08;102182.31;5032930;28;20035;-92
2024/04/10 06:48:24;;;;;;;;;;;;;;;15.81;55.73;102195.09;5031104;28;19918;-91
2024/04/10 06:50:57;;;;;;;;;;;;;;;15.86;55.77;102196.00;5029675;28;19980;-90
2024/04/10 06:53:44;;;;;;;;;;;;;;;15.92;55.64;102200.38;5028098;28;20401;-92
2024/04/10 06:56:09;;;;;;;;;;;;;;;15.98;55.95;102191.31;5021836;28;19944;-92
2024/04/10 06:58:38;;;;;;;;;;;;;;;16.08;55.33;102197.91;5022642;28;19917;-91
2024/04/10 07:01:06;;;;;;;;;;;;;;;16.17;55.32;102218.06;5021420;28;19917;-92
2024/04/10 07:03:44;;;;;;;;;;;;;;;16.25;55.13;102198.69;5027504;28;19948;-92
2024/04/10 07:06:21;;;;;;;;;;;;;;;16.37;54.88;102203.97;5027043;28;19948;-92
2024/04/10 07:08:51;;;;;;;;;;;;;;;16.48;54.86;102206.53;5041207;28;19921;-92
2024/04/10 07:11:22;;;;;;;;;;;;;;;16.58;54.68;102208.56;5026093;28;19955;-92
2024/04/10 07:13:51;;;;;;;;;;;;;;;16.65;54.09;102216.47;5029344;28;19949;-91
2024/04/10 07:16:17;;;;;;;;;;;;;;;16.69;53.93;102231.97;5033130;28;19921;-92
2024/04/10 07:18:44;;;;;;;;;;;;;;;16.73;53.89;102237.72;5023372;28;19964;-92
2024/04/10 07:21:12;;;;;;;;;;;;;;;16.80;53.71;102235.63;5031975;28;19921;-92
2024/04/10 07:23:42;;;;;;;;;;;;;;;16.89;53.38;102244.97;5032973;28;19917;-91
2024/04/10 07:26:19;;;;;;;;;;;;;;;16.95;53.34;102240.41;5028772;28;19928;-92
2024/04/10 07:28:48;;;;;;;;;;;;;;;17.07;53.19;102236.50;5024678;28;20277;-91
2024/04/10 07:31:19;;;;;;;;;;;;;;;17.16;52.61;102248.47;5020359;28;19914;-93
2024/04/10 07:33:46;;;;;;;;;;;;;;;17.22;52.23;102247.44;5020583;28;20006;-90
2024/04/10 07:36:18;;;;;;;;;;;;;;;17.28;52.44;102251.03;5025753;28;20389;-91
2024/04/10 07:39:04;;;;;;;;;;;;;;;17.24;51.92;102257.25;5032197;28;20752;-92
2024/04/10 07:41:30;;;;;;;;;;;;;;;17.20;51.15;102257.72;5031437;28;19917;-92
2024/04/10 07:43:55;;;;;;;;;;;;;;;17.21;52.10;102272.09;5025637;28;19921;-91
2024/04/10 07:46:22;;;;;;;;;;;;;;;17.17;51.75;102268.25;5043002;28;20385;-92
2024/04/10 07:48:51;;;;;;;;;;;;;;;17.16;51.92;102264.72;5033001;28;19983;-92
2024/04/10 07:51:18;;;;;;;;;;;;;;;17.21;51.70;102272.91;5032575;28;19971;-92
2024/04/10 07:53:43;;;;;;;;;;;;;;;17.24;51.50;102276.19;5027132;28;19917;-92
2024/04/10 07:56:09;;;;;;;;;;;;;;;17.26;51.26;102285.69;5030120;28;19919;-92
2024/04/10 07:58:38;;;;;;;;;;;;;;;17.31;51.22;102293.88;5028638;28;19940;-91
2024/04/10 08:01:13;;;;;;;;;;;;;;;17.32;51.18;102297.41;5027826;28;19951;-92
2024/04/10 08:03:39;;;;;;;;;;;;;;;17.37;50.72;102294.72;5043289;28;19924;-91
2024/04/10 08:06:07;;;;;;;;;;;;;;;17.45;50.90;102302.41;5026523;28;20372;-92
2024/04/10 08:08:45;;;;;;;;;;;;;;;17.48;50.03;102308.13;5021443;28;19928;-92
2024/04/10 08:11:18;;;;;;;;;;;;;;;17.45;50.18;102311.34;5026187;28;19923;-92
2024/04/10 08:13:44;;;;;;;;;;;;;;;17.47;50.65;102324.66;5025792;28;19917;-92
2024/04/10 08:16:12;;;;;;;;;;;;;;;17.47;50.51;102336.31;5031669;28;19996;-91
2024/04/10 08:18:39;;;;;;;;;;;;;;;17.39;50.01;102333.22;5022202;28;19924;-92
2024/04/10 08:21:09;;;;;;;;;;;;;;;17.38;49.76;102339.72;5024587;28;19925;-92
2024/04/10 08:23:37;;;;;;;;;;;;;;;17.37;49.25;102330.78;5017086;28;19917;-91
2024/04/10 08:26:19;;;;;;;;;;;;;;;17.38;49.82;102332.41;5022926;28;19925;-91
2024/04/10 08:28:45;;;;;;;;;;;;;;;17.37;49.84;102332.66;5028587;28;19947;-92
2024/04/10 08:31:12;;;;;;;;;;;;;;;17.39;50.05;102338.63;5026432;28;20461;-91
2024/04/10 08:33:41;;;;;;;;;;;;;;;17.39;49.79;102342.16;5025344;28;20004;-91
2024/04/10 08:36:12;;;;;;;;;;;;;;;17.42;49.42;102338.97;5023452;28;19917;-91
2024/04/10 08:38:48;;;;;;;;;;;;;;;17.45;49.97;102343.88;5016550;28;19921;-92
2024/04/10 08:41:22;;;;;;;;;;;;;;;17.41;49.77;102352.75;5018505;28;19918;-92
2024/04/10 08:43:56;;;;;;;;;;;;;;;17.44;49.62;102357.69;5021322;28;20337;-91
2024/04/10 08:46:25;;;;;;;;;;;;;;;17.40;49.38;102360.06;5025738;28;19917;-92
2024/04/10 08:48:54;;;;;;;;;;;;;;;17.43;49.78;102372.31;5030136;28;19932;-91
2024/04/10 08:51:22;;;;;;;;;;;;;;;17.44;49.65;102373.94;5023748;28;19916;-92
2024/04/10 08:53:54;;;;;;;;;;;;;;;17.47;49.10;102370.72;5032490;28;19956;-92
2024/04/10 08:56:25;;;;;;;;;;;;;;;17.51;49.47;102371.84;5031651;28;19917;-92
2024/04/10 08:58:54;;;;;;;;;;;;;;;17.57;49.60;102376.22;5028502;28;20008;-92
2024/04/10 09:01:33;;;;;;;;;;;;;;;17.62;49.64;102376.31;5027654;28;19921;-92
2024/04/10 09:04:08;;;;;;;;;;;;;;;17.73;49.52;102378.06;5032269;28;20285;-93
2024/04/10 09:06:36;;;;;;;;;;;;;;;17.78;49.13;102391.69;5019444;28;19929;-91
2024/04/10 09:09:06;;;;;;;;;;;;;;;17.79;48.87;102387.88;5024626;28;19980;-92
2024/04/10 09:11:33;;;;;;;;;;;;;;;17.83;48.88;102398.22;5029853;28;19956;-92
2024/04/10 09:14:18;;;;;;;;;;;;;;;17.88;49.04;102390.13;5039068;28;20552;-92
2024/04/10 09:16:44;;;;;;;;;;;;;;;17.97;49.28;102407.56;5024980;28;20016;-92
2024/04/10 09:19:15;;;;;;;;;;;;;;;18.06;48.78;102414.97;5032356;28;20009;-92
2024/04/10 09:21:41;;;;;;;;;;;;;;;18.12;48.23;102426.66;5031014;28;19919;-91
2024/04/10 09:24:08;;;;;;;;;;;;;;;18.07;47.76;102416.59;5030225;28;19925;-92
2024/04/10 09:26:42;;;;;;;;;;;;;;;18.05;47.88;102413.34;5028290;28;19933;-90
2024/04/10 09:29:09;;;;;;;;;;;;;;;18.12;47.67;102419.34;5022684;28;20024;-91
2024/04/10 09:31:36;;;;;;;;;;;;;;;18.17;47.54;102415.06;5027853;28;19928;-92
2024/04/10 09:34:11;;;;;;;;;;;;;;;18.19;47.09;102430.00;5028820;28;19964;-91
2024/04/10 09:36:37;;;;;;;;;;;;;;;18.22;46.95;102434.09;5020550;28;20075;-91
2024/04/10 09:39:07;;;;;;;;;;;;;;;18.22;45.99;102434.91;5039972;28;19964;-92
2024/04/10 09:41:57;;;;;;;;;;;;;;;18.24;46.57;102437.38;5018333;28;19921;-91
2024/04/10 09:44:29;;;;;;;;;;;;;;;18.31;45.99;102435.25;5019144;28;19916;-90
2024/04/10 09:46:58;;;;;;;;;;;;;;;18.44;47.30;102434.81;5030617;28;19927;-92
2024/04/10 09:49:31;;;;;;;;;;;;;;;18.52;46.68;102447.91;5025162;28;20001;-91
2024/04/10 09:52:01;;;;;;;;;;;;;;;18.60;46.39;102452.84;5030746;28;19959;-92
2024/04/10 09:54:42;;;;;;;;;;;;;;;18.64;46.34;102458.59;5024207;28;19925;-91
2024/04/10 09:57:12;;;;;;;;;;;;;;;18.59;45.76;102469.41;5022247;28;19917;-91
2024/04/10 10:00:01;;;;;;;;;;;;;;;18.55;45.83;102477.25;5025586;28;19923;-91
2024/04/10 10:02:35;;;;;;;;;;;;;;;18.42;45.42;102473.06;5019260;28;20032;-91
2024/04/10 10:05:00;;;;;;;;;;;;;;;18.30;45.72;102477.03;5025426;28;19922;-91
2024/04/10 10:07:27;;;;;;;;;;;;;;;18.26;45.74;102481.34;5031914;28;19925;-91
2024/04/10 10:10:12;;;;;;;;;;;;;;;18.24;45.60;102481.59;5021531;28;19917;-91
2024/04/10 10:12:44;;;;;;;;;;;;;;;18.18;45.63;102482.63;5028011;28;19921;-91
2024/04/10 10:15:10;;;;;;;;;;;;;;;18.15;45.32;102475.00;5043579;28;19928;-92
2024/04/10 10:17:37;;;;;;;;;;;;;;;18.12;45.43;102473.59;5045215;28;19946;-91
2024/04/10 10:20:18;;;;;;;;;;;;;;;18.16;45.67;102478.53;5038856;28;19928;-92
2024/04/10 10:22:44;;;;;;;;;;;;;;;18.17;45.37;102481.00;5019928;28;19923;-92
2024/04/10 10:25:14;;;;;;;;;;;;;;;18.18;45.40;102482.63;5025571;28;19917;-92
2024/04/10 10:27:41;;;;;;;;;;;;;;;18.22;45.48;102477.50;5027913;28;19920;-91
2024/04/10 10:30:11;;;;;;;;;;;;;;;18.22;45.42;102483.75;5026859;28;19913;-91
2024/04/10 10:32:37;;;;;;;;;;;;;;;18.24;45.71;102487.03;5024266;28;19924;-92
2024/04/10 10:35:07;;;;;;;;;;;;;;;18.25;45.52;102487.84;5029956;28;19928;-92
2024/04/10 10:37:34;;;;;;;;;;;;;;;18.28;45.53;102493.56;5027923;28;19936;-91
2024/04/10 10:40:01;;;;;;;;;;;;;;;18.27;45.23;102496.53;5024014;28;19948;-91
2024/04/10 10:42:26;;;;;;;;;;;;;;;18.25;45.05;102496.78;5021369;28;19925;-91
2024/04/10 10:45:02;;;;;;;;;;;;;;;18.31;45.17;102500.38;5026885;28;19993;-92
2024/04/10 10:47:28;;;;;;;;;;;;;;;18.27;45.11;102497.34;5021634;28;19921;-91
2024/04/10 10:50:04;;;;;;;;;;;;;;;18.28;44.42;102492.75;5023549;28;19917;-91
2024/04/10 10:52:32;;;;;;;;;;;;;;;18.25;44.91;102504.94;5029496;28;20006;-91
2024/04/10 10:55:09;;;;;;;;;;;;;;;18.27;44.59;102507.38;5031860;28;20466;-92
2024/04/10 10:57:36;;;;;;;;;;;;;;;18.32;44.92;102510.16;5028831;28;19924;-91
2024/04/10 11:00:12;;;;;;;;;;;;;;;18.36;44.30;102509.38;5031453;28;20666;-92
2024/04/10 11:02:42;;;;;;;;;;;;;;;18.48;45.16;102524.66;5028365;28;20045;-91
2024/04/10 11:05:16;;;;;;;;;;;;;;;18.57;44.42;102525.84;5043502;28;20385;-91
2024/04/10 11:07:43;;;;;;;;;;;;;;;18.56;44.41;102524.22;5026823;28;19965;-90
2024/04/10 11:10:11;;;;;;;;;;;;;;;18.56;44.55;102524.22;5025801;28;19960;-91
2024/04/10 11:12:38;;;;;;;;;;;;;;;18.53;44.36;102522.84;5031831;28;19921;-91
2024/04/10 11:15:08;;;;;;;;;;;;;;;18.58;44.50;102531.03;5031537;28;20051;-91
2024/04/10 11:17:33;;;;;;;;;;;;;;;18.57;44.20;102528.56;5029643;28;20000;-92
2024/04/10 11:20:06;;;;;;;;;;;;;;;18.62;44.52;102536.75;5033953;28;20019;-90
2024/04/10 11:22:42;;;;;;;;;;;;;;;18.68;44.20;102541.19;5027739;28;19927;-90
2024/04/10 11:25:14;;;;;;;;;;;;;;;18.71;44.14;102541.50;5031759;28;20019;-90
2024/04/10 11:27:40;;;;;;;;;;;;;;;18.69;44.10;102550.97;5032860;28;19968;-91
2024/04/10 11:30:09;;;;;;;;;;;;;;;18.66;44.46;102551.47;5033924;28;19917;-91
2024/04/10 11:32:38;;;;;;;;;;;;;;;18.63;44.35;102555.53;5029123;28;19917;-91
2024/04/10 11:35:06;;;;;;;;;;;;;;;18.61;44.01;102567.69;5032903;28;19921;-91
2024/04/10 11:37:35;;;;;;;;;;;;;;;18.56;44.20;102564.94;5027811;28;19953;-89
2024/04/10 11:40:13;;;;;;;;;;;;;;;18.46;43.89;102564.81;5032900;28;19917;-90
2024/04/10 11:42:39;;;;;;;;;;;;;;;18.38;44.22;102583.22;5033051;28;19917;-90
2024/04/10 11:45:09;;;;;;;;;;;;;;;18.42;44.53;102576.19;5033604;28;19913;-91
2024/04/10 11:47:45;;;;;;;;;;;;;;;18.48;44.65;102587.91;5028500;28;20012;-91
2024/04/10 11:50:17;;;;;;;;;;;;;;;18.57;44.42;102599.16;5031494;28;19925;-91
2024/04/10 11:52:47;;;;;;;;;;;;;;;18.65;44.09;102579.69;5033414;28;20124;-91
2024/04/10 11:55:17;;;;;;;;;;;;;;;18.71;44.14;102584.13;5047471;28;19921;-90
2024/04/10 11:57:45;;;;;;;;;;;;;;;18.90;44.57;102590.78;5031615;28;19927;-90
2024/04/10 12:00:14;;;;;;;;;;;;;;;19.13;44.50;102586.88;5030986;28;19921;-91
2024/04/10 12:02:39;;;;;;;;;;;;;;;19.33;44.01;102576.16;5031943;28;19928;-91
2024/04/10 12:05:05;;;;;;;;;;;;;;;19.49;43.67;102590.66;5030257;28;19917;-90
2024/04/10 12:07:33;;;;;;;;;;;;;;;19.48;43.51;102585.47;5030563;28;20007;-90
2024/04/10 12:10:04;;;;;;;;;;;;;;;19.38;43.09;102586.22;5028811;28;19928;-91
2024/04/10 12:12:30;;;;;;;;;;;;;;;19.29;43.16;102591.34;5028546;28;19917;-90
2024/04/10 12:14:57;;;;;;;;;;;;;;;19.24;42.95;102576.91;5028799;28;19921;-91
2024/04/10 12:17:24;;;;;;;;;;;;;;;19.04;42.87;102579.50;5030152;28;19948;-91
2024/04/10 12:19:49;;;;;;;;;;;;;;;19.00;43.40;102592.75;5031141;28;19970;-89
2024/04/10 12:22:25;;;;;;;;;;;;;;;18.99;43.00;102593.84;5029383;28;19925;-91
2024/04/10 12:24:52;;;;;;;;;;;;;;;18.96;43.42;102599.78;5023174;28;20428;-91
2024/04/10 12:27:28;;;;;;;;;;;;;;;19.00;43.33;102598.19;5025578;28;19924;-91
2024/04/10 12:29:55;;;;;;;;;;;;;;;18.99;43.21;102600.09;5023215;28;20370;-91
2024/04/10 12:32:21;;;;;;;;;;;;;;;19.05;43.30;102600.97;5031742;28;19917;-92
2024/04/10 12:34:46;;;;;;;;;;;;;;;19.08;43.54;102599.63;5028756;28;20695;-92
2024/04/10 12:39:56;;;;;;;;;;;;;;;19.17;43.50;102606.19;5029092;28;19948;-91
2024/04/10 12:42:25;;;;;;;;;;;;;;;19.23;43.08;102607.88;5030384;28;20297;-92
2024/04/10 12:44:54;;;;;;;;;;;;;;;19.32;43.49;102607.13;5030186;28;19921;-92
2024/04/10 12:47:22;;;;;;;;;;;;;;;19.40;43.41;102608.56;5027393;28;19921;-91
2024/04/10 12:49:49;;;;;;;;;;;;;;;19.46;43.08;102610.22;5024502;28;19925;-91
2024/04/10 12:52:15;;;;;;;;;;;;;;;19.51;42.38;102618.38;5022403;28;20076;-91